createdAt,value
2018-11-12T00:01:48.446Z,9.04
2018-11-12T00:04:17.774Z,9.05
2018-11-12T00:06:46.441Z,9.05
2018-11-12T00:09:14.951Z,9.03
2018-11-12T00:11:43.619Z,9.03
2018-11-12T00:14:12.126Z,9.01
2018-11-12T00:16:41.021Z,9.01
2018-11-12T00:19:09.629Z,9.00
2018-11-12T00:21:38.260Z,9.01
2018-11-12T00:24:07.015Z,9.01
2018-11-12T00:26:35.775Z,9.01
2018-11-12T00:29:04.303Z,9.01
2018-11-12T00:31:32.908Z,9.00
2018-11-12T00:34:01.485Z,8.99
2018-11-12T00:36:31.019Z,8.97
2018-11-12T00:38:59.539Z,8.95
2018-11-12T00:41:28.068Z,8.93
2018-11-12T00:43:56.629Z,8.94
2018-11-12T00:46:25.406Z,8.93
2018-11-12T00:48:53.957Z,8.95
2018-11-12T00:51:22.747Z,8.97
2018-11-12T00:53:51.379Z,8.97
2018-11-12T00:56:19.907Z,8.96
2018-11-12T00:58:48.475Z,8.97
2018-11-12T01:01:17.059Z,8.99
2018-11-12T01:03:45.593Z,9.00
2018-11-12T01:06:14.077Z,8.99
2018-11-12T01:08:42.651Z,8.99
2018-11-12T01:11:11.239Z,9.00
2018-11-12T01:13:39.800Z,9.03
2018-11-12T01:16:09.022Z,9.03
2018-11-12T01:18:37.542Z,9.01
2018-11-12T01:21:06.611Z,9.01
2018-11-12T01:23:35.577Z,9.00
2018-11-12T01:26:04.552Z,9.02
2018-11-12T01:28:33.200Z,9.03
2018-11-12T01:31:05.626Z,9.04
2018-11-12T01:33:35.631Z,9.04
2018-11-12T01:36:04.232Z,9.04
2018-11-12T01:38:32.949Z,9.02
2018-11-12T01:41:01.475Z,9.03
2018-11-12T01:43:30.086Z,9.03
2018-11-12T01:45:59.015Z,9.02
2018-11-12T01:48:27.532Z,9.04
2018-11-12T01:50:56.068Z,9.07
2018-11-12T01:53:24.590Z,9.10
2018-11-12T01:55:53.210Z,9.11
2018-11-12T01:58:21.733Z,9.14
2018-11-12T02:00:50.331Z,9.18
2018-11-12T02:03:18.912Z,9.18
2018-11-12T02:05:47.440Z,9.20
2018-11-12T02:08:16.006Z,9.20
2018-11-12T02:10:44.544Z,9.20
2018-11-12T02:13:13.104Z,9.22
2018-11-12T02:15:41.681Z,9.23
2018-11-12T02:18:10.250Z,9.21
2018-11-12T02:20:38.834Z,9.22
2018-11-12T02:23:07.357Z,9.22
2018-11-12T02:25:35.953Z,9.25
2018-11-12T02:28:04.895Z,9.26
2018-11-12T02:30:38.817Z,9.27
2018-11-12T02:33:07.390Z,9.28
2018-11-12T02:35:35.902Z,9.28
2018-11-12T02:38:04.466Z,9.32
2018-11-12T02:40:33.057Z,9.33
2018-11-12T02:43:01.635Z,9.35
2018-11-12T02:45:30.265Z,9.36
2018-11-12T02:47:58.913Z,9.39
2018-11-12T02:50:27.499Z,9.40
2018-11-12T02:52:56.101Z,9.42
2018-11-12T02:55:24.680Z,9.42
2018-11-12T02:57:53.245Z,9.41
2018-11-12T03:00:22.944Z,9.42
2018-11-12T03:02:51.574Z,9.42
2018-11-12T03:05:20.164Z,9.47
2018-11-12T03:07:48.745Z,9.50
2018-11-12T03:10:25.173Z,9.53
2018-11-12T03:12:53.799Z,9.55
2018-11-12T03:15:22.657Z,9.56
2018-11-12T03:17:57.646Z,9.59
2018-11-12T03:20:26.254Z,9.59
2018-11-12T03:22:54.779Z,9.64
2018-11-12T03:25:23.412Z,9.65
2018-11-12T03:27:52.161Z,9.65
2018-11-12T03:30:21.736Z,9.68
2018-11-12T03:32:50.953Z,9.71
2018-11-12T03:35:19.522Z,9.72
2018-11-12T03:37:49.019Z,9.72
2018-11-12T03:40:19.885Z,9.73
2018-11-12T03:42:48.947Z,9.73
2018-11-12T03:45:22.599Z,9.75
2018-11-12T03:47:51.725Z,9.73
2018-11-12T03:50:21.911Z,9.74
2018-11-12T03:52:50.558Z,9.75
2018-11-12T03:55:20.431Z,9.76
2018-11-12T03:57:48.954Z,9.77
2018-11-12T04:00:20.928Z,9.76
2018-11-12T04:02:49.500Z,9.79
2018-11-12T04:05:18.088Z,9.77
2018-11-12T04:07:46.680Z,9.78
2018-11-12T04:10:16.859Z,9.76
2018-11-12T04:12:45.446Z,9.74
2018-11-12T04:15:18.749Z,9.69
2018-11-12T04:17:47.279Z,9.69
2018-11-12T04:20:17.039Z,9.75
2018-11-12T04:23:18.374Z,9.75
2018-11-12T04:25:47.508Z,9.74
2018-11-12T04:28:16.390Z,9.77
2018-11-12T04:30:44.990Z,9.77
2018-11-12T04:33:13.565Z,9.79
2018-11-12T04:35:42.164Z,9.79
2018-11-12T04:38:10.833Z,9.83
2018-11-12T04:40:39.425Z,9.85
2018-11-12T04:43:07.945Z,9.87
2018-11-12T04:45:36.546Z,9.88
2018-11-12T04:48:05.099Z,9.88
2018-11-12T04:50:33.698Z,9.89
2018-11-12T04:53:02.212Z,9.91
2018-11-12T04:55:30.755Z,9.94
2018-11-12T04:57:59.317Z,9.95
2018-11-12T05:00:28.832Z,9.98
2018-11-12T05:02:57.381Z,10.01
2018-11-12T05:05:27.134Z,10.02
2018-11-12T05:07:55.674Z,10.04
2018-11-12T05:10:25.397Z,10.05
2018-11-12T05:12:54.487Z,10.06
2018-11-12T05:15:29.630Z,10.10
2018-11-12T05:17:58.175Z,10.11
2018-11-12T05:20:28.331Z,10.12
2018-11-12T05:22:56.898Z,10.11
2018-11-12T05:25:25.613Z,10.13
2018-11-12T05:27:54.138Z,10.13
2018-11-12T05:30:26.165Z,10.14
2018-11-12T05:32:55.159Z,10.13
2018-11-12T05:35:24.873Z,10.17
2018-11-12T05:37:53.630Z,10.17
2018-11-12T05:40:24.221Z,10.19
2018-11-12T05:42:52.892Z,10.20
2018-11-12T05:45:22.687Z,10.21
2018-11-12T05:47:51.252Z,10.21
2018-11-12T05:50:24.035Z,10.23
2018-11-12T05:52:54.003Z,10.25
2018-11-12T05:55:23.774Z,10.25
2018-11-12T05:57:52.338Z,10.26
2018-11-12T06:00:26.774Z,10.28
2018-11-12T06:02:55.528Z,10.28
2018-11-12T06:05:24.052Z,10.31
2018-11-12T06:07:52.637Z,10.31
2018-11-12T06:10:25.809Z,10.31
2018-11-12T06:12:54.365Z,10.32
2018-11-12T06:15:23.201Z,10.31
2018-11-12T06:17:52.221Z,10.33
2018-11-12T06:20:22.880Z,10.33
2018-11-12T06:22:52.224Z,10.34
2018-11-12T06:25:22.115Z,10.34
2018-11-12T06:27:51.210Z,10.37
2018-11-12T06:30:21.923Z,10.37
2018-11-12T06:32:50.557Z,10.38
2018-11-12T06:35:19.682Z,10.38
2018-11-12T06:37:49.298Z,10.41
2018-11-12T06:40:20.012Z,10.42
2018-11-12T06:42:48.725Z,10.43
2018-11-12T06:45:20.147Z,10.44
2018-11-12T06:47:49.654Z,10.44
2018-11-12T06:50:21.375Z,10.44
2018-11-12T06:52:50.067Z,10.44
2018-11-12T06:55:19.087Z,10.44
2018-11-12T06:57:48.154Z,10.44
2018-11-12T07:00:25.460Z,10.46
2018-11-12T07:02:54.101Z,10.43
2018-11-12T07:05:22.621Z,10.45
2018-11-12T07:07:51.202Z,10.45
2018-11-12T07:10:21.162Z,10.44
2018-11-12T07:12:50.555Z,10.47
2018-11-12T07:15:20.505Z,10.48
2018-11-12T07:17:49.146Z,10.49
2018-11-12T07:20:19.379Z,10.48
2018-11-12T07:22:48.077Z,10.49
2018-11-12T07:25:17.736Z,10.50
2018-11-12T07:27:46.279Z,10.49
2018-11-12T07:30:18.028Z,10.47
2018-11-12T07:32:47.087Z,10.48
2018-11-12T07:35:16.478Z,10.50
2018-11-12T07:37:46.228Z,10.50
2018-11-12T07:40:15.538Z,10.52
2018-11-12T07:42:44.326Z,10.56
2018-11-12T07:45:16.810Z,10.55
2018-11-12T07:47:46.286Z,10.55
2018-11-12T07:50:17.150Z,10.55
2018-11-12T07:52:45.841Z,10.55
2018-11-12T07:55:16.240Z,10.54
2018-11-12T07:57:45.647Z,10.55
2018-11-12T08:00:16.562Z,10.56
2018-11-12T08:02:46.098Z,10.57
2018-11-12T08:05:15.013Z,10.60
2018-11-12T08:07:44.217Z,10.60
2018-11-12T08:10:15.047Z,10.61
2018-11-12T08:12:44.438Z,10.62
2018-11-12T08:15:14.250Z,10.61
2018-11-12T08:17:43.051Z,10.61
2018-11-12T08:20:13.977Z,10.63
2018-11-12T08:22:43.164Z,10.65
2018-11-12T08:25:12.393Z,10.65
2018-11-12T08:27:41.753Z,10.69
2018-11-12T08:30:13.934Z,10.70
2018-11-12T08:32:43.083Z,10.71
2018-11-12T08:35:12.982Z,10.73
2018-11-12T08:37:41.574Z,10.73
2018-11-12T08:40:12.606Z,10.75
2018-11-12T08:42:41.778Z,10.74
2018-11-12T08:45:10.878Z,10.75
2018-11-12T08:47:40.297Z,10.80
2018-11-12T08:50:15.047Z,10.81
2018-11-12T08:52:44.727Z,10.81
2018-11-12T08:55:16.537Z,10.85
2018-11-12T08:57:48.331Z,10.86
2018-11-12T09:00:17.433Z,10.87
2018-11-12T09:02:45.986Z,10.87
2018-11-12T09:05:15.757Z,10.88
2018-11-12T09:07:46.787Z,10.89
2018-11-12T09:10:17.169Z,10.90
2018-11-12T09:12:46.085Z,10.89
2018-11-12T09:15:14.907Z,10.91
2018-11-12T09:17:44.354Z,10.93
2018-11-12T09:20:15.475Z,10.94
2018-11-12T09:22:43.991Z,10.95
2018-11-12T09:25:15.255Z,10.96
2018-11-12T09:27:43.895Z,10.98
2018-11-12T09:30:16.434Z,10.99
2018-11-12T09:32:45.173Z,10.99
2018-11-12T09:35:14.899Z,11.00
2018-11-12T09:37:44.833Z,11.00
2018-11-12T09:40:17.604Z,11.03
2018-11-12T09:42:46.558Z,11.05
2018-11-12T09:45:15.083Z,11.07
2018-11-12T09:47:44.229Z,11.08
2018-11-12T09:50:14.503Z,11.10
2018-11-12T09:52:44.419Z,11.11
2018-11-12T09:55:13.621Z,11.14
2018-11-12T09:57:43.161Z,11.17
2018-11-12T10:00:13.959Z,11.18
2018-11-12T10:02:44.881Z,11.19
2018-11-12T10:05:13.416Z,11.22
2018-11-12T10:07:42.450Z,11.23
2018-11-12T10:10:23.448Z,11.26
2018-11-12T10:12:52.083Z,11.28
2018-11-12T10:15:22.191Z,11.33
2018-11-12T10:17:50.053Z,11.33
2018-11-12T10:20:16.199Z,11.32
2018-11-12T10:22:44.945Z,11.34
2018-11-12T10:25:14.250Z,11.37
2018-11-12T10:27:42.799Z,11.38
2018-11-12T10:30:11.607Z,11.38
2018-11-12T10:32:40.398Z,11.38
2018-11-12T10:35:09.724Z,11.38
2018-11-12T10:37:38.888Z,11.43
2018-11-12T10:40:16.928Z,11.44
2018-11-12T10:42:46.103Z,11.44
2018-11-12T10:45:15.741Z,11.47
2018-11-12T10:47:44.945Z,11.51
2018-11-12T10:50:13.683Z,11.52
2018-11-12T10:52:42.253Z,11.54
2018-11-12T10:55:13.958Z,11.56
2018-11-12T10:57:43.165Z,11.58
2018-11-12T11:00:19.575Z,11.61
2018-11-12T11:02:53.200Z,11.62
2018-11-12T11:05:21.920Z,11.64
2018-11-12T11:07:51.386Z,11.66
2018-11-12T11:10:20.408Z,11.68
2018-11-12T11:12:48.932Z,11.71
2018-11-12T11:15:17.518Z,11.72
2018-11-12T11:17:46.478Z,11.73
2018-11-12T11:20:15.121Z,11.72
2018-11-12T11:22:43.649Z,11.73
2018-11-12T11:25:12.169Z,11.72
2018-11-12T11:27:40.828Z,11.74
2018-11-12T11:30:11.651Z,11.74
2018-11-12T11:32:40.335Z,11.76
2018-11-12T11:35:09.799Z,11.77
2018-11-12T11:37:38.359Z,11.79
2018-11-12T11:40:10.344Z,11.80
2018-11-12T11:42:39.251Z,11.81
2018-11-12T11:45:08.707Z,11.82
2018-11-12T11:47:37.660Z,11.84
2018-11-12T11:50:06.956Z,11.84
2018-11-12T11:52:35.571Z,11.86
2018-11-12T11:55:04.669Z,11.88
2018-11-12T11:57:33.309Z,11.89
2018-11-12T12:00:01.836Z,11.90
2018-11-12T12:02:30.415Z,11.91
2018-11-12T12:04:59.056Z,11.90
2018-11-12T12:07:27.596Z,11.91
2018-11-12T12:09:56.227Z,11.92
2018-11-12T12:12:24.795Z,11.91
2018-11-12T12:14:53.314Z,11.93
2018-11-12T12:17:21.873Z,11.92
2018-11-12T12:19:50.794Z,11.93
2018-11-12T12:22:19.467Z,11.93
2018-11-12T12:24:48.140Z,11.93
2018-11-12T12:27:16.567Z,11.95
2018-11-12T12:29:45.100Z,11.96
2018-11-12T12:32:13.619Z,11.95
2018-11-12T12:34:42.159Z,11.95
2018-11-12T12:37:10.743Z,11.96
2018-11-12T12:39:39.299Z,11.98
2018-11-12T12:42:07.832Z,12.00
2018-11-12T12:44:37.107Z,12.03
2018-11-12T12:47:05.855Z,12.03
2018-11-12T12:49:35.420Z,12.04
2018-11-12T12:52:04.926Z,12.04
2018-11-12T12:54:33.562Z,12.05
2018-11-12T12:57:02.116Z,12.05
2018-11-12T12:59:30.728Z,12.05
2018-11-12T13:01:59.494Z,12.05
2018-11-12T13:04:27.905Z,12.06
2018-11-12T13:06:56.442Z,12.05
2018-11-12T13:09:25.008Z,12.05
2018-11-12T13:11:53.628Z,12.04
2018-11-12T13:14:22.151Z,12.05
2018-11-12T13:16:50.730Z,12.05
2018-11-12T13:19:19.319Z,12.06
2018-11-12T13:21:47.868Z,12.07
2018-11-12T13:24:16.472Z,12.09
2018-11-12T13:26:45.027Z,12.12
2018-11-12T13:29:13.578Z,12.13
2018-11-12T13:31:42.206Z,12.15
2018-11-12T13:34:10.744Z,12.19
2018-11-12T13:36:39.239Z,12.22
2018-11-12T13:39:10.890Z,12.21
2018-11-12T13:41:39.819Z,12.24
2018-11-12T13:44:08.543Z,12.26
2018-11-12T13:46:42.222Z,12.26
2018-11-12T13:49:10.896Z,12.28
2018-11-12T13:51:39.472Z,12.29
2018-11-12T13:54:08.888Z,12.30
2018-11-12T13:56:37.413Z,12.31
2018-11-12T13:59:06.250Z,12.33
2018-11-12T14:01:34.930Z,12.33
2018-11-12T14:04:03.501Z,12.36
2018-11-12T14:06:32.121Z,12.37
2018-11-12T14:09:00.733Z,12.37
2018-11-12T14:11:29.252Z,12.37
2018-11-12T14:13:58.065Z,12.38
2018-11-12T14:16:26.602Z,12.39
2018-11-12T14:18:55.224Z,12.40
2018-11-12T14:21:23.875Z,12.41
2018-11-12T14:23:52.381Z,12.41
2018-11-12T14:26:20.995Z,12.40
2018-11-12T14:28:49.878Z,12.38
2018-11-12T14:31:18.447Z,12.37
2018-11-12T14:33:46.953Z,12.35
2018-11-12T14:36:15.503Z,12.33
2018-11-12T14:38:44.040Z,12.31
2018-11-12T14:41:12.596Z,12.30
2018-11-12T14:43:41.120Z,12.27
2018-11-12T14:46:09.713Z,12.25
2018-11-12T14:48:38.545Z,12.25
2018-11-12T14:51:07.305Z,12.23
2018-11-12T14:53:35.819Z,12.20
2018-11-12T14:56:04.348Z,12.19
2018-11-12T14:58:32.956Z,12.16
2018-11-12T15:01:01.495Z,12.15
2018-11-12T15:03:30.077Z,12.13
2018-11-12T15:05:58.655Z,12.11
2018-11-12T15:08:27.338Z,12.09
2018-11-12T15:10:55.926Z,12.09
2018-11-12T15:13:24.471Z,12.07
2018-11-12T15:15:53.002Z,12.08
2018-11-12T15:18:21.772Z,12.07
2018-11-12T15:20:50.480Z,12.06
2018-11-12T15:23:19.029Z,12.05
2018-11-12T15:25:48.171Z,12.04
2018-11-12T15:28:16.823Z,12.01
2018-11-12T15:30:45.367Z,12.00
2018-11-12T15:33:13.911Z,11.97
2018-11-12T15:35:42.540Z,11.91
2018-11-12T15:38:11.099Z,11.91
2018-11-12T15:40:39.623Z,11.88
2018-11-12T15:43:08.201Z,11.88
2018-11-12T15:45:36.766Z,11.87
2018-11-12T15:48:05.426Z,11.84
2018-11-12T15:50:35.591Z,11.80
2018-11-12T15:53:04.223Z,11.76
2018-11-12T15:55:32.807Z,11.76
2018-11-12T15:58:01.397Z,11.74
2018-11-12T16:00:29.956Z,11.72
2018-11-12T16:02:58.481Z,11.71
2018-11-12T16:05:27.198Z,11.68
2018-11-12T16:07:55.730Z,11.67
2018-11-12T16:10:24.269Z,11.66
2018-11-12T16:12:52.796Z,11.64
2018-11-12T16:15:22.157Z,11.63
2018-11-12T16:17:50.730Z,11.61
2018-11-12T16:20:21.666Z,11.60
2018-11-12T16:22:50.772Z,11.60
2018-11-12T16:25:19.757Z,11.60
2018-11-12T16:27:48.306Z,11.59
2018-11-12T16:30:16.840Z,11.59
2018-11-12T16:32:45.890Z,11.58
2018-11-12T16:35:16.105Z,11.58
2018-11-12T16:37:45.335Z,11.57
2018-11-12T16:40:13.955Z,11.57
2018-11-12T16:42:43.562Z,11.55
2018-11-12T16:45:12.944Z,11.54
2018-11-12T16:47:41.615Z,11.50
2018-11-12T16:50:11.237Z,11.46
2018-11-12T16:52:39.847Z,11.43
2018-11-12T16:55:11.828Z,11.43
2018-11-12T16:57:40.397Z,11.42
2018-11-12T17:00:12.024Z,11.40
2018-11-12T17:02:40.826Z,11.38
2018-11-12T17:05:11.430Z,11.37
2018-11-12T17:07:40.035Z,11.34
2018-11-12T17:10:10.150Z,11.30
2018-11-12T17:12:39.471Z,11.28
2018-11-12T17:15:08.781Z,11.27
2018-11-12T17:17:37.385Z,11.25
2018-11-12T17:20:06.523Z,11.23
2018-11-12T17:22:35.232Z,11.21
2018-11-12T17:25:04.197Z,11.21
2018-11-12T17:27:32.744Z,11.19
2018-11-12T17:30:01.320Z,11.15
2018-11-12T17:32:30.051Z,11.12
2018-11-12T17:34:58.643Z,11.10
2018-11-12T17:37:27.176Z,11.07
2018-11-12T17:39:55.816Z,11.02
2018-11-12T17:42:24.508Z,10.99
2018-11-12T17:44:53.109Z,10.96
2018-11-12T17:47:21.677Z,10.93
2018-11-12T17:49:50.212Z,10.89
2018-11-12T17:52:18.752Z,10.86
2018-11-12T17:54:47.295Z,10.82
2018-11-12T17:57:15.820Z,10.78
2018-11-12T17:59:44.458Z,10.74
2018-11-12T18:02:12.952Z,10.70
2018-11-12T18:04:41.514Z,10.65
2018-11-12T18:07:10.171Z,10.62
2018-11-12T18:09:38.645Z,10.59
2018-11-12T18:12:07.958Z,10.55
2018-11-12T18:14:36.568Z,10.52
2018-11-12T18:17:05.093Z,10.49
2018-11-12T18:19:33.670Z,10.47
2018-11-12T18:22:02.453Z,10.42
2018-11-12T18:24:31.063Z,10.39
2018-11-12T18:26:59.595Z,10.34
2018-11-12T18:29:28.138Z,10.30
2018-11-12T18:31:56.859Z,10.25
2018-11-12T18:34:25.224Z,10.23
2018-11-12T18:36:53.725Z,10.21
2018-11-12T18:39:22.225Z,10.16
2018-11-12T18:41:50.890Z,10.11
2018-11-12T18:44:19.497Z,10.09
2018-11-12T18:46:48.429Z,10.04
2018-11-12T18:49:16.986Z,10.01
2018-11-12T18:51:45.517Z,9.99
2018-11-12T18:54:14.092Z,9.96
2018-11-12T18:56:42.607Z,9.94
2018-11-12T18:59:11.156Z,9.91
2018-11-12T19:01:39.682Z,9.89
2018-11-12T19:04:08.288Z,9.82
2018-11-12T19:06:36.902Z,9.77
2018-11-12T19:09:07.830Z,9.69
2018-11-12T19:11:36.419Z,9.62
2018-11-12T19:14:05.302Z,9.59
2018-11-12T19:16:33.880Z,9.58
2018-11-12T19:19:02.459Z,9.57
2018-11-12T19:21:31.092Z,9.56
2018-11-12T19:23:59.598Z,9.56
2018-11-12T19:26:28.097Z,9.56
2018-11-12T19:28:56.646Z,9.53
2018-11-12T19:31:25.175Z,9.48
2018-11-12T19:33:53.840Z,9.42
2018-11-12T19:36:22.392Z,9.38
2018-11-12T19:38:51.044Z,9.37
2018-11-12T19:41:19.785Z,9.36
2018-11-12T19:43:48.313Z,9.34
2018-11-12T19:46:16.864Z,9.32
2018-11-12T19:48:45.674Z,9.30
2018-11-12T19:51:14.261Z,9.29
2018-11-12T19:53:42.785Z,9.28
2018-11-12T19:56:11.426Z,9.28
2018-11-12T19:58:39.961Z,9.28
2018-11-12T20:01:08.558Z,9.27
2018-11-12T20:03:37.155Z,9.26
2018-11-12T20:06:06.782Z,9.25
2018-11-12T20:08:35.295Z,9.23
2018-11-12T20:11:03.848Z,9.22
2018-11-12T20:13:32.391Z,9.21
2018-11-12T20:16:00.962Z,9.19
2018-11-12T20:18:29.595Z,9.18
2018-11-12T20:20:58.135Z,9.13
2018-11-12T20:23:26.706Z,9.12
2018-11-12T20:25:55.571Z,9.10
2018-11-12T20:28:24.131Z,9.06
2018-11-12T20:30:52.709Z,9.04
2018-11-12T20:33:21.290Z,9.02
2018-11-12T20:35:49.840Z,9.03
2018-11-12T20:38:18.412Z,9.03
2018-11-12T20:40:46.958Z,9.00
2018-11-12T20:43:15.494Z,8.98
2018-11-12T20:45:44.044Z,8.99
2018-11-12T20:48:12.618Z,8.95
2018-11-12T20:50:41.248Z,8.93
2018-11-12T20:53:09.785Z,8.90
2018-11-12T20:55:38.538Z,8.89
2018-11-12T20:58:07.274Z,8.88
2018-11-12T21:00:35.835Z,8.86
2018-11-12T21:03:04.422Z,8.83
2018-11-12T21:05:32.967Z,8.80
2018-11-12T21:08:01.612Z,8.76
2018-11-12T21:10:30.145Z,8.79
2018-11-12T21:12:58.671Z,8.82
2018-11-12T21:15:27.223Z,8.82
2018-11-12T21:17:55.761Z,8.83
2018-11-12T21:20:25.475Z,8.83
2018-11-12T21:22:54.303Z,8.84
2018-11-12T21:25:24.053Z,8.83
2018-11-12T21:27:52.638Z,8.82
2018-11-12T21:30:28.343Z,8.84
2018-11-12T21:32:56.865Z,8.85
2018-11-12T21:35:25.791Z,8.87
2018-11-12T21:37:55.532Z,8.88
2018-11-12T21:40:25.305Z,8.87
2018-11-12T21:42:54.043Z,8.87
2018-11-12T21:45:24.067Z,8.89
2018-11-12T21:47:52.604Z,8.88
2018-11-12T21:50:21.843Z,8.88
2018-11-12T21:52:50.736Z,8.88
2018-11-12T21:55:25.890Z,8.88
2018-11-12T21:57:54.476Z,8.88
2018-11-12T22:00:25.863Z,8.89
2018-11-12T22:02:55.743Z,8.89
2018-11-12T22:05:24.493Z,8.90
2018-11-12T22:07:53.048Z,8.89
2018-11-12T22:10:21.599Z,8.90
2018-11-12T22:12:51.144Z,8.92
2018-11-12T22:15:26.333Z,8.91
2018-11-12T22:17:55.035Z,8.91
2018-11-12T22:20:25.132Z,8.91
2018-11-12T22:22:53.671Z,8.90
2018-11-12T22:25:22.958Z,8.88
2018-11-12T22:27:52.394Z,8.88
2018-11-12T22:30:22.186Z,8.89
2018-11-12T22:32:51.919Z,8.89
2018-11-12T22:35:20.468Z,8.90
2018-11-12T22:37:49.297Z,8.90
2018-11-12T22:40:18.631Z,8.90
2018-11-12T22:42:48.287Z,8.87
2018-11-12T22:45:18.393Z,8.85
2018-11-12T22:47:47.581Z,8.84
2018-11-12T22:50:16.097Z,8.82
2018-11-12T22:52:45.245Z,8.80
2018-11-12T22:55:14.955Z,8.80
2018-11-12T22:57:43.532Z,8.78
2018-11-12T23:00:24.292Z,8.80
2018-11-12T23:02:53.083Z,8.80
2018-11-12T23:05:22.048Z,8.80
2018-11-12T23:07:51.108Z,8.76
2018-11-12T23:10:20.118Z,8.75
2018-11-12T23:12:48.710Z,8.75
2018-11-12T23:15:17.817Z,8.73
2018-11-12T23:17:46.379Z,8.71
2018-11-12T23:20:17.068Z,8.69
2018-11-12T23:22:46.508Z,8.69
2018-11-12T23:25:15.154Z,8.68
2018-11-12T23:27:44.678Z,8.67
2018-11-12T23:30:14.784Z,8.64
2018-11-12T23:32:43.386Z,8.61
2018-11-12T23:35:14.031Z,8.60
2018-11-12T23:37:43.403Z,8.61
2018-11-12T23:40:15.571Z,8.61
2018-11-12T23:42:44.781Z,8.60
2018-11-12T23:45:13.419Z,8.60
2018-11-12T23:47:45.316Z,8.60
2018-11-12T23:50:17.037Z,8.60
2018-11-12T23:52:46.466Z,8.61
2018-11-12T23:55:15.378Z,8.62
2018-11-12T23:57:45.279Z,8.62
